sensor_id;sensor_type;location;lat;lon;timestamp;pressure;altitude;pressure_sealevel;temperature
68127;BMP180;54931;52.098;21.006;2023-03-07T00:01:32;98871.80;;;-1.10
68127;BMP180;54931;52.098;21.006;2023-03-07T00:04:01;98880.20;;;-1.20
68127;BMP180;54931;52.098;21.006;2023-03-07T00:06:29;98887.60;;;-1.30
68127;BMP180;54931;52.098;21.006;2023-03-07T00:09:00;98882.00;;;-1.40
68127;BMP180;54931;52.098;21.006;2023-03-07T00:11:29;98884.00;;;-1.50
68127;BMP180;54931;52.098;21.006;2023-03-07T00:13:57;98887.20;;;-1.60
68127;BMP180;54931;52.098;21.006;2023-03-07T00:16:25;98881.60;;;-1.70
68127;BMP180;54931;52.098;21.006;2023-03-07T00:18:54;98884.80;;;-1.70
68127;BMP180;54931;52.098;21.006;2023-03-07T00:21:22;98887.20;;;-1.74
68127;BMP180;54931;52.098;21.006;2023-03-07T00:23:51;98884.40;;;-1.80
68127;BMP180;54931;52.098;21.006;2023-03-07T00:26:25;98886.20;;;-1.80
68127;BMP180;54931;52.098;21.006;2023-03-07T00:28:54;98888.80;;;-1.84
68127;BMP180;54931;52.098;21.006;2023-03-07T00:31:22;98886.80;;;-1.90
68127;BMP180;54931;52.098;21.006;2023-03-07T00:33:50;98884.20;;;-1.90
68127;BMP180;54931;52.098;21.006;2023-03-07T00:36:21;98885.00;;;-1.96
68127;BMP180;54931;52.098;21.006;2023-03-07T00:38:51;98881.00;;;-2.00
68127;BMP180;54931;52.098;21.006;2023-03-07T00:41:25;98878.80;;;-2.00
68127;BMP180;54931;52.098;21.006;2023-03-07T00:43:54;98881.00;;;-2.10
68127;BMP180;54931;52.098;21.006;2023-03-07T00:46:24;98881.20;;;-2.10
68127;BMP180;54931;52.098;21.006;2023-03-07T00:48:52;98877.00;;;-2.10
68127;BMP180;54931;52.098;21.006;2023-03-07T00:51:22;98879.40;;;-2.10
68127;BMP180;54931;52.098;21.006;2023-03-07T00:53:50;98873.80;;;-2.12
68127;BMP180;54931;52.098;21.006;2023-03-07T00:56:25;98879.20;;;-2.20
68127;BMP180;54931;52.098;21.006;2023-03-07T00:58:53;98880.60;;;-2.20
68127;BMP180;54931;52.098;21.006;2023-03-07T01:01:24;98878.20;;;-2.20
68127;BMP180;54931;52.098;21.006;2023-03-07T01:03:52;98872.80;;;-2.30
68127;BMP180;54931;52.098;21.006;2023-03-07T01:06:25;98871.20;;;-2.30
68127;BMP180;54931;52.098;21.006;2023-03-07T01:08:58;98875.20;;;-2.40
68127;BMP180;54931;52.098;21.006;2023-03-07T01:11:28;98867.40;;;-2.44
68127;BMP180;54931;52.098;21.006;2023-03-07T01:14:02;98866.60;;;-2.52
68127;BMP180;54931;52.098;21.006;2023-03-07T01:16:34;98870.20;;;-2.60
68127;BMP180;54931;52.098;21.006;2023-03-07T01:19:06;98870.40;;;-2.68
68127;BMP180;54931;52.098;21.006;2023-03-07T01:21:38;98867.60;;;-2.70
68127;BMP180;54931;52.098;21.006;2023-03-07T01:24:12;98867.60;;;-2.72
68127;BMP180;54931;52.098;21.006;2023-03-07T01:26:42;98870.40;;;-2.80
68127;BMP180;54931;52.098;21.006;2023-03-07T01:29:11;98870.80;;;-2.80
68127;BMP180;54931;52.098;21.006;2023-03-07T01:31:38;98869.60;;;-2.80
68127;BMP180;54931;52.098;21.006;2023-03-07T01:34:06;98869.60;;;-2.78
68127;BMP180;54931;52.098;21.006;2023-03-07T01:36:36;98866.00;;;-2.78
68127;BMP180;54931;52.098;21.006;2023-03-07T01:39:15;98866.00;;;-2.78
68127;BMP180;54931;52.098;21.006;2023-03-07T01:41:44;98865.60;;;-2.70
68127;BMP180;54931;52.098;21.006;2023-03-07T01:44:20;98863.80;;;-2.72
68127;BMP180;54931;52.098;21.006;2023-03-07T01:46:52;98859.40;;;-2.76
68127;BMP180;54931;52.098;21.006;2023-03-07T01:52:17;98861.60;;;-2.80
68127;BMP180;54931;52.098;21.006;2023-03-07T01:54:52;98857.20;;;-2.90
68127;BMP180;54931;52.098;21.006;2023-03-07T01:57:27;98854.40;;;-2.96
68127;BMP180;54931;52.098;21.006;2023-03-07T02:00:00;98853.80;;;-3.02
68127;BMP180;54931;52.098;21.006;2023-03-07T02:02:38;98852.60;;;-3.10
68127;BMP180;54931;52.098;21.006;2023-03-07T02:05:20;98856.40;;;-3.20
68127;BMP180;54931;52.098;21.006;2023-03-07T02:07:50;98848.20;;;-3.30
68127;BMP180;54931;52.098;21.006;2023-03-07T02:10:21;98851.40;;;-3.40
68127;BMP180;54931;52.098;21.006;2023-03-07T02:12:52;98852.20;;;-3.54
68127;BMP180;54931;52.098;21.006;2023-03-07T02:15:20;98854.00;;;-3.70
68127;BMP180;54931;52.098;21.006;2023-03-07T02:17:50;98850.60;;;-3.80
68127;BMP180;54931;52.098;21.006;2023-03-07T02:29:00;98857.80;;;-4.30
68127;BMP180;54931;52.098;21.006;2023-03-07T02:31:29;98858.00;;;-4.32
68127;BMP180;54931;52.098;21.006;2023-03-07T02:33:57;98853.80;;;-4.40
68127;BMP180;54931;52.098;21.006;2023-03-07T02:36:34;98856.40;;;-4.50
68127;BMP180;54931;52.098;21.006;2023-03-07T02:39:05;98855.20;;;-4.54
68127;BMP180;54931;52.098;21.006;2023-03-07T02:41:38;98857.00;;;-4.60
68127;BMP180;54931;52.098;21.006;2023-03-07T02:44:06;98857.20;;;-4.70
68127;BMP180;54931;52.098;21.006;2023-03-07T02:46:35;98851.00;;;-4.80
68127;BMP180;54931;52.098;21.006;2023-03-07T02:49:03;98845.60;;;-4.90
68127;BMP180;54931;52.098;21.006;2023-03-07T02:51:32;98842.60;;;-5.00
68127;BMP180;54931;52.098;21.006;2023-03-07T02:54:00;98845.60;;;-5.10
68127;BMP180;54931;52.098;21.006;2023-03-07T02:56:28;98845.20;;;-5.20
68127;BMP180;54931;52.098;21.006;2023-03-07T02:58:57;98837.00;;;-5.30
68127;BMP180;54931;52.098;21.006;2023-03-07T03:01:26;98840.00;;;-5.40
68127;BMP180;54931;52.098;21.006;2023-03-07T03:03:54;98839.60;;;-5.50
68127;BMP180;54931;52.098;21.006;2023-03-07T03:06:22;98841.00;;;-5.50
68127;BMP180;54931;52.098;21.006;2023-03-07T03:08:50;98837.80;;;-5.60
68127;BMP180;54931;52.098;21.006;2023-03-07T03:11:18;98839.80;;;-5.70
68127;BMP180;54931;52.098;21.006;2023-03-07T03:13:46;98830.00;;;-5.80
68127;BMP180;54931;52.098;21.006;2023-03-07T03:16:14;98835.60;;;-5.90
68127;BMP180;54931;52.098;21.006;2023-03-07T03:18:42;98836.80;;;-5.94
68127;BMP180;54931;52.098;21.006;2023-03-07T03:21:11;98834.60;;;-6.00
68127;BMP180;54931;52.098;21.006;2023-03-07T03:23:39;98836.40;;;-6.10
68127;BMP180;54931;52.098;21.006;2023-03-07T03:26:08;98831.40;;;-6.10
68127;BMP180;54931;52.098;21.006;2023-03-07T03:28:39;98832.80;;;-6.00
68127;BMP180;54931;52.098;21.006;2023-03-07T03:31:10;98831.20;;;-5.86
68127;BMP180;54931;52.098;21.006;2023-03-07T03:33:37;98830.60;;;-5.70
68127;BMP180;54931;52.098;21.006;2023-03-07T03:36:10;98829.60;;;-5.54
68127;BMP180;54931;52.098;21.006;2023-03-07T03:38:39;98827.40;;;-5.40
68127;BMP180;54931;52.098;21.006;2023-03-07T03:41:13;98832.00;;;-5.30
68127;BMP180;54931;52.098;21.006;2023-03-07T03:43:42;98834.40;;;-5.20
68127;BMP180;54931;52.098;21.006;2023-03-07T03:46:10;98837.60;;;-5.10
68127;BMP180;54931;52.098;21.006;2023-03-07T03:48:38;98837.20;;;-5.08
68127;BMP180;54931;52.098;21.006;2023-03-07T03:51:12;98838.40;;;-5.00
68127;BMP180;54931;52.098;21.006;2023-03-07T03:53:43;98838.60;;;-4.96
68127;BMP180;54931;52.098;21.006;2023-03-07T03:56:15;98842.60;;;-4.90
68127;BMP180;54931;52.098;21.006;2023-03-07T03:58:46;98843.80;;;-4.82
68127;BMP180;54931;52.098;21.006;2023-03-07T04:01:14;98846.80;;;-4.80
68127;BMP180;54931;52.098;21.006;2023-03-07T04:03:46;98843.40;;;-4.70
68127;BMP180;54931;52.098;21.006;2023-03-07T04:06:34;98839.20;;;-4.70
68127;BMP180;54931;52.098;21.006;2023-03-07T04:09:02;98837.20;;;-4.70
68127;BMP180;54931;52.098;21.006;2023-03-07T04:11:32;98837.80;;;-4.60
68127;BMP180;54931;52.098;21.006;2023-03-07T04:14:01;98839.80;;;-4.60
68127;BMP180;54931;52.098;21.006;2023-03-07T04:16:29;98835.20;;;-4.60
68127;BMP180;54931;52.098;21.006;2023-03-07T04:18:57;98836.20;;;-4.60
68127;BMP180;54931;52.098;21.006;2023-03-07T04:21:24;98835.00;;;-4.60
68127;BMP180;54931;52.098;21.006;2023-03-07T04:23:52;98836.20;;;-4.60
68127;BMP180;54931;52.098;21.006;2023-03-07T04:26:22;98843.40;;;-4.60
68127;BMP180;54931;52.098;21.006;2023-03-07T04:28:50;98837.60;;;-4.60
68127;BMP180;54931;52.098;21.006;2023-03-07T04:31:21;98832.80;;;-4.60
68127;BMP180;54931;52.098;21.006;2023-03-07T04:33:51;98833.40;;;-4.60
68127;BMP180;54931;52.098;21.006;2023-03-07T04:36:22;98837.00;;;-4.60
68127;BMP180;54931;52.098;21.006;2023-03-07T04:38:50;98831.60;;;-4.60
68127;BMP180;54931;52.098;21.006;2023-03-07T04:41:24;98832.20;;;-4.60
68127;BMP180;54931;52.098;21.006;2023-03-07T04:43:53;98833.40;;;-4.56
68127;BMP180;54931;52.098;21.006;2023-03-07T04:46:21;98828.60;;;-4.50
68127;BMP180;54931;52.098;21.006;2023-03-07T04:48:48;98830.20;;;-4.48
68127;BMP180;54931;52.098;21.006;2023-03-07T04:51:17;98831.00;;;-4.42
68127;BMP180;54931;52.098;21.006;2023-03-07T04:53:44;98829.80;;;-4.42
68127;BMP180;54931;52.098;21.006;2023-03-07T04:56:12;98828.80;;;-4.40
68127;BMP180;54931;52.098;21.006;2023-03-07T04:58:43;98828.20;;;-4.40
68127;BMP180;54931;52.098;21.006;2023-03-07T05:01:11;98826.80;;;-4.40
68127;BMP180;54931;52.098;21.006;2023-03-07T05:03:39;98833.00;;;-4.40
68127;BMP180;54931;52.098;21.006;2023-03-07T05:06:13;98830.60;;;-4.38
68127;BMP180;54931;52.098;21.006;2023-03-07T05:08:41;98826.80;;;-4.30
68127;BMP180;54931;52.098;21.006;2023-03-07T05:11:09;98823.40;;;-4.30
68127;BMP180;54931;52.098;21.006;2023-03-07T05:13:37;98825.80;;;-4.30
68127;BMP180;54931;52.098;21.006;2023-03-07T05:16:05;98829.20;;;-4.28
68127;BMP180;54931;52.098;21.006;2023-03-07T05:18:33;98830.20;;;-4.20
68127;BMP180;54931;52.098;21.006;2023-03-07T05:21:01;98836.00;;;-4.20
68127;BMP180;54931;52.098;21.006;2023-03-07T05:23:29;98832.60;;;-4.20
68127;BMP180;54931;52.098;21.006;2023-03-07T05:25:56;98836.80;;;-4.20
68127;BMP180;54931;52.098;21.006;2023-03-07T05:28:25;98835.00;;;-4.30
68127;BMP180;54931;52.098;21.006;2023-03-07T05:30:52;98837.00;;;-4.30
68127;BMP180;54931;52.098;21.006;2023-03-07T05:33:20;98837.20;;;-4.38
68127;BMP180;54931;52.098;21.006;2023-03-07T05:35:48;98840.20;;;-4.40
68127;BMP180;54931;52.098;21.006;2023-03-07T05:38:16;98841.80;;;-4.38
68127;BMP180;54931;52.098;21.006;2023-03-07T05:40:44;98844.00;;;-4.38
68127;BMP180;54931;52.098;21.006;2023-03-07T05:43:12;98838.20;;;-4.40
68127;BMP180;54931;52.098;21.006;2023-03-07T05:45:40;98835.40;;;-4.40
68127;BMP180;54931;52.098;21.006;2023-03-07T05:48:08;98834.60;;;-4.48
68127;BMP180;54931;52.098;21.006;2023-03-07T05:50:37;98831.60;;;-4.50
68127;BMP180;54931;52.098;21.006;2023-03-07T05:53:05;98829.00;;;-4.50
68127;BMP180;54931;52.098;21.006;2023-03-07T05:55:33;98839.40;;;-4.60
68127;BMP180;54931;52.098;21.006;2023-03-07T05:58:01;98837.80;;;-4.60
68127;BMP180;54931;52.098;21.006;2023-03-07T06:00:29;98840.00;;;-4.50
68127;BMP180;54931;52.098;21.006;2023-03-07T06:02:56;98843.80;;;-4.50
68127;BMP180;54931;52.098;21.006;2023-03-07T06:05:24;98847.40;;;-4.50
68127;BMP180;54931;52.098;21.006;2023-03-07T06:07:52;98850.40;;;-4.50
68127;BMP180;54931;52.098;21.006;2023-03-07T06:10:20;98852.00;;;-4.54
68127;BMP180;54931;52.098;21.006;2023-03-07T06:12:52;98850.60;;;-4.50
68127;BMP180;54931;52.098;21.006;2023-03-07T06:15:22;98847.60;;;-4.44
68127;BMP180;54931;52.098;21.006;2023-03-07T06:17:50;98848.20;;;-4.50
68127;BMP180;54931;52.098;21.006;2023-03-07T06:20:19;98850.60;;;-4.50
68127;BMP180;54931;52.098;21.006;2023-03-07T06:22:48;98838.80;;;-4.40
68127;BMP180;54931;52.098;21.006;2023-03-07T06:25:16;98842.20;;;-4.40
68127;BMP180;54931;52.098;21.006;2023-03-07T06:27:48;98842.20;;;-4.40
68127;BMP180;54931;52.098;21.006;2023-03-07T06:30:17;98843.80;;;-4.30
68127;BMP180;54931;52.098;21.006;2023-03-07T06:32:45;98838.40;;;-4.20
68127;BMP180;54931;52.098;21.006;2023-03-07T06:35:13;98832.00;;;-4.20
68127;BMP180;54931;52.098;21.006;2023-03-07T06:37:41;98833.80;;;-4.32
68127;BMP180;54931;52.098;21.006;2023-03-07T06:40:10;98833.00;;;-4.40
68127;BMP180;54931;52.098;21.006;2023-03-07T06:42:38;98834.40;;;-4.30
68127;BMP180;54931;52.098;21.006;2023-03-07T06:45:06;98837.80;;;-4.20
68127;BMP180;54931;52.098;21.006;2023-03-07T06:47:34;98840.40;;;-4.06
68127;BMP180;54931;52.098;21.006;2023-03-07T06:50:03;98838.00;;;-4.04
68127;BMP180;54931;52.098;21.006;2023-03-07T06:52:31;98841.80;;;-4.04
68127;BMP180;54931;52.098;21.006;2023-03-07T06:54:59;98834.00;;;-4.00
68127;BMP180;54931;52.098;21.006;2023-03-07T06:57:28;98828.60;;;-4.00
68127;BMP180;54931;52.098;21.006;2023-03-07T06:59:56;98826.60;;;-4.08
68127;BMP180;54931;52.098;21.006;2023-03-07T07:02:24;98823.60;;;-4.00
68127;BMP180;54931;52.098;21.006;2023-03-07T07:04:52;98819.00;;;-3.94
68127;BMP180;54931;52.098;21.006;2023-03-07T07:07:20;98817.80;;;-3.80
68127;BMP180;54931;52.098;21.006;2023-03-07T07:09:48;98808.80;;;-3.68
68127;BMP180;54931;52.098;21.006;2023-03-07T07:12:17;98807.80;;;-3.44
68127;BMP180;54931;52.098;21.006;2023-03-07T07:14:46;98805.80;;;-3.16
68127;BMP180;54931;52.098;21.006;2023-03-07T07:17:14;98804.20;;;-2.70
68127;BMP180;54931;52.098;21.006;2023-03-07T07:19:42;98802.00;;;-2.06
68127;BMP180;54931;52.098;21.006;2023-03-07T07:22:10;98798.60;;;-1.32
68127;BMP180;54931;52.098;21.006;2023-03-07T07:24:38;98794.60;;;-0.88
68127;BMP180;54931;52.098;21.006;2023-03-07T07:27:06;98785.00;;;-0.44
68127;BMP180;54931;52.098;21.006;2023-03-07T07:29:34;98789.40;;;-0.04
68127;BMP180;54931;52.098;21.006;2023-03-07T07:32:03;98789.60;;;0.20
68127;BMP180;54931;52.098;21.006;2023-03-07T07:34:31;98793.00;;;0.50
68127;BMP180;54931;52.098;21.006;2023-03-07T07:36:59;98786.40;;;0.80
68127;BMP180;54931;52.098;21.006;2023-03-07T07:39:27;98794.00;;;0.80
68127;BMP180;54931;52.098;21.006;2023-03-07T07:41:54;98785.20;;;0.50
68127;BMP180;54931;52.098;21.006;2023-03-07T07:44:23;98786.00;;;0.42
68127;BMP180;54931;52.098;21.006;2023-03-07T07:46:51;98783.00;;;0.50
68127;BMP180;54931;52.098;21.006;2023-03-07T07:49:18;98779.00;;;0.46
68127;BMP180;54931;52.098;21.006;2023-03-07T07:51:46;98783.60;;;0.68
68127;BMP180;54931;52.098;21.006;2023-03-07T07:54:14;98787.20;;;0.74
68127;BMP180;54931;52.098;21.006;2023-03-07T07:56:42;98785.80;;;0.50
68127;BMP180;54931;52.098;21.006;2023-03-07T07:59:11;98783.20;;;0.50
68127;BMP180;54931;52.098;21.006;2023-03-07T08:01:39;98774.80;;;0.36
68127;BMP180;54931;52.098;21.006;2023-03-07T08:04:07;98772.00;;;0.40
68127;BMP180;54931;52.098;21.006;2023-03-07T08:06:35;98768.20;;;0.40
68127;BMP180;54931;52.098;21.006;2023-03-07T08:09:03;98770.00;;;0.58
68127;BMP180;54931;52.098;21.006;2023-03-07T08:11:31;98761.80;;;0.48
68127;BMP180;54931;52.098;21.006;2023-03-07T08:14:01;98757.00;;;0.60
68127;BMP180;54931;52.098;21.006;2023-03-07T08:16:29;98757.40;;;0.68
68127;BMP180;54931;52.098;21.006;2023-03-07T08:18:57;98753.40;;;0.94
68127;BMP180;54931;52.098;21.006;2023-03-07T08:21:27;98757.40;;;1.40
68127;BMP180;54931;52.098;21.006;2023-03-07T08:23:56;98758.20;;;1.56
68127;BMP180;54931;52.098;21.006;2023-03-07T08:26:24;98756.00;;;1.58
68127;BMP180;54931;52.098;21.006;2023-03-07T08:28:52;98759.60;;;1.40
68127;BMP180;54931;52.098;21.006;2023-03-07T08:31:23;98754.80;;;1.26
68127;BMP180;54931;52.098;21.006;2023-03-07T08:33:52;98753.00;;;1.44
68127;BMP180;54931;52.098;21.006;2023-03-07T08:36:20;98757.80;;;1.60
68127;BMP180;54931;52.098;21.006;2023-03-07T08:38:51;98754.40;;;1.50
68127;BMP180;54931;52.098;21.006;2023-03-07T08:41:21;98750.80;;;1.60
68127;BMP180;54931;52.098;21.006;2023-03-07T08:43:49;98746.20;;;1.72
68127;BMP180;54931;52.098;21.006;2023-03-07T08:46:17;98745.00;;;1.76
68127;BMP180;54931;52.098;21.006;2023-03-07T08:48:45;98743.20;;;1.78
68127;BMP180;54931;52.098;21.006;2023-03-07T08:51:16;98737.00;;;2.08
68127;BMP180;54931;52.098;21.006;2023-03-07T08:53:45;98737.00;;;2.36
68127;BMP180;54931;52.098;21.006;2023-03-07T08:56:17;98736.80;;;2.32
68127;BMP180;54931;52.098;21.006;2023-03-07T08:58:45;98729.80;;;1.86
68127;BMP180;54931;52.098;21.006;2023-03-07T09:01:13;98733.00;;;1.78
68127;BMP180;54931;52.098;21.006;2023-03-07T09:03:42;98740.60;;;2.00
68127;BMP180;54931;52.098;21.006;2023-03-07T09:06:19;98731.40;;;2.00
68127;BMP180;54931;52.098;21.006;2023-03-07T09:08:49;98727.80;;;1.98
68127;BMP180;54931;52.098;21.006;2023-03-07T09:11:18;98726.40;;;1.86
68127;BMP180;54931;52.098;21.006;2023-03-07T09:13:48;98724.20;;;2.00
68127;BMP180;54931;52.098;21.006;2023-03-07T09:16:16;98720.60;;;1.92
68127;BMP180;54931;52.098;21.006;2023-03-07T09:18:44;98726.00;;;2.08
68127;BMP180;54931;52.098;21.006;2023-03-07T09:21:13;98721.60;;;2.00
68127;BMP180;54931;52.098;21.006;2023-03-07T09:23:44;98725.20;;;1.90
68127;BMP180;54931;52.098;21.006;2023-03-07T09:26:13;98726.60;;;1.92
68127;BMP180;54931;52.098;21.006;2023-03-07T09:28:41;98723.80;;;1.98
68127;BMP180;54931;52.098;21.006;2023-03-07T09:31:11;98714.40;;;1.90
68127;BMP180;54931;52.098;21.006;2023-03-07T09:33:41;98712.20;;;1.80
68127;BMP180;54931;52.098;21.006;2023-03-07T09:36:11;98715.80;;;1.80
68127;BMP180;54931;52.098;21.006;2023-03-07T09:38:39;98711.20;;;1.66
68127;BMP180;54931;52.098;21.006;2023-03-07T09:42:03;98711.20;;;1.56
68127;BMP180;54931;52.098;21.006;2023-03-07T09:50:54;98706.00;;;1.70
68127;BMP180;54931;52.098;21.006;2023-03-07T09:53:40;98708.00;;;1.70
68127;BMP180;54931;52.098;21.006;2023-03-07T09:56:26;98705.00;;;1.60
68127;BMP180;54931;52.098;21.006;2023-03-07T09:59:04;98700.00;;;1.44
68127;BMP180;54931;52.098;21.006;2023-03-07T10:01:38;98697.00;;;1.50
68127;BMP180;54931;52.098;21.006;2023-03-07T10:04:18;98695.40;;;1.56
68127;BMP180;54931;52.098;21.006;2023-03-07T10:06:54;98688.00;;;1.58
68127;BMP180;54931;52.098;21.006;2023-03-07T10:09:24;98685.80;;;1.70
68127;BMP180;54931;52.098;21.006;2023-03-07T10:20:36;98668.20;;;1.84
68127;BMP180;54931;52.098;21.006;2023-03-07T10:26:10;98660.80;;;1.90
68127;BMP180;54931;52.098;21.006;2023-03-07T10:28:41;98659.00;;;1.70
68127;BMP180;54931;52.098;21.006;2023-03-07T10:31:17;98655.60;;;1.70
68127;BMP180;54931;52.098;21.006;2023-03-07T10:33:50;98646.60;;;1.70
68127;BMP180;54931;52.098;21.006;2023-03-07T10:36:40;98638.40;;;1.96
68127;BMP180;54931;52.098;21.006;2023-03-07T10:39:51;98625.00;;;2.22
68127;BMP180;54931;52.098;21.006;2023-03-07T10:42:24;98618.20;;;2.46
68127;BMP180;54931;52.098;21.006;2023-03-07T10:44:53;98622.80;;;2.62
68127;BMP180;54931;52.098;21.006;2023-03-07T10:47:27;98619.40;;;3.00
68127;BMP180;54931;52.098;21.006;2023-03-07T10:53:34;98605.00;;;3.70
68127;BMP180;54931;52.098;21.006;2023-03-07T10:56:17;98591.60;;;4.00
68127;BMP180;54931;52.098;21.006;2023-03-07T10:59:04;98583.00;;;3.92
68127;BMP180;54931;52.098;21.006;2023-03-07T11:01:33;98578.00;;;4.10
68127;BMP180;54931;52.098;21.006;2023-03-07T11:04:20;98570.60;;;4.20
68127;BMP180;54931;52.098;21.006;2023-03-07T11:09:34;98570.00;;;3.92
68127;BMP180;54931;52.098;21.006;2023-03-07T11:12:19;98566.60;;;4.04
68127;BMP180;54931;52.098;21.006;2023-03-07T11:14:56;98565.40;;;3.90
68127;BMP180;54931;52.098;21.006;2023-03-07T11:17:45;98553.60;;;3.98
68127;BMP180;54931;52.098;21.006;2023-03-07T11:20:47;98557.40;;;4.04
68127;BMP180;54931;52.098;21.006;2023-03-07T11:23:21;98558.60;;;4.10
68127;BMP180;54931;52.098;21.006;2023-03-07T11:25:52;98547.00;;;4.10
68127;BMP180;54931;52.098;21.006;2023-03-07T11:28:33;98545.60;;;4.10
68127;BMP180;54931;52.098;21.006;2023-03-07T11:37:29;98520.80;;;4.30
68127;BMP180;54931;52.098;21.006;2023-03-07T11:40:23;98513.40;;;4.34
68127;BMP180;54931;52.098;21.006;2023-03-07T11:43:38;98503.60;;;4.38
68127;BMP180;54931;52.098;21.006;2023-03-07T11:46:20;98504.20;;;4.40
68127;BMP180;54931;52.098;21.006;2023-03-07T11:55:22;98500.60;;;4.74
68127;BMP180;54931;52.098;21.006;2023-03-07T12:04:49;98495.80;;;5.40
68127;BMP180;54931;52.098;21.006;2023-03-07T12:08:32;98495.20;;;5.62
68127;BMP180;54931;52.098;21.006;2023-03-07T12:14:31;98479.40;;;5.52
68127;BMP180;54931;52.098;21.006;2023-03-07T12:23:38;98471.60;;;5.80
68127;BMP180;54931;52.098;21.006;2023-03-07T12:29:43;98465.00;;;5.88
68127;BMP180;54931;52.098;21.006;2023-03-07T12:32:20;98462.60;;;5.70
68127;BMP180;54931;52.098;21.006;2023-03-07T12:35:17;98462.60;;;5.70
68127;BMP180;54931;52.098;21.006;2023-03-07T12:38:03;98451.00;;;5.90
68127;BMP180;54931;52.098;21.006;2023-03-07T12:40:44;98451.00;;;5.90
68127;BMP180;54931;52.098;21.006;2023-03-07T12:43:35;98438.40;;;5.76
68127;BMP180;54931;52.098;21.006;2023-03-07T12:46:35;98439.60;;;5.60
68127;BMP180;54931;52.098;21.006;2023-03-07T12:49:20;98434.80;;;5.70
68127;BMP180;54931;52.098;21.006;2023-03-07T12:51:59;98432.80;;;5.50
68127;BMP180;54931;52.098;21.006;2023-03-07T12:54:34;98431.00;;;5.40
68127;BMP180;54931;52.098;21.006;2023-03-07T12:59:56;98422.20;;;5.18
68127;BMP180;54931;52.098;21.006;2023-03-07T13:02:32;98420.40;;;5.22
68127;BMP180;54931;52.098;21.006;2023-03-07T13:05:04;98420.40;;;5.30
68127;BMP180;54931;52.098;21.006;2023-03-07T13:07:33;98415.20;;;5.30
68127;BMP180;54931;52.098;21.006;2023-03-07T13:10:06;98415.20;;;5.40
68127;BMP180;54931;52.098;21.006;2023-03-07T13:12:37;98413.20;;;5.40
68127;BMP180;54931;52.098;21.006;2023-03-07T13:30:32;98407.00;;;5.40
68127;BMP180;54931;52.098;21.006;2023-03-07T13:33:26;98401.60;;;5.40
68127;BMP180;54931;52.098;21.006;2023-03-07T13:35:59;98404.20;;;5.32
68127;BMP180;54931;52.098;21.006;2023-03-07T13:38:34;98402.00;;;5.30
68127;BMP180;54931;52.098;21.006;2023-03-07T13:41:11;98399.60;;;5.20
68127;BMP180;54931;52.098;21.006;2023-03-07T13:49:06;98388.20;;;5.10
68127;BMP180;54931;52.098;21.006;2023-03-07T13:51:34;98389.80;;;5.10
68127;BMP180;54931;52.098;21.006;2023-03-07T13:54:05;98396.40;;;5.10
68127;BMP180;54931;52.098;21.006;2023-03-07T13:56:41;98387.00;;;5.10
68127;BMP180;54931;52.098;21.006;2023-03-07T14:01:56;98376.00;;;5.10
68127;BMP180;54931;52.098;21.006;2023-03-07T14:04:54;98373.60;;;5.00
68127;BMP180;54931;52.098;21.006;2023-03-07T14:07:32;98367.60;;;5.04
68127;BMP180;54931;52.098;21.006;2023-03-07T14:10:36;98362.40;;;5.10
68127;BMP180;54931;52.098;21.006;2023-03-07T14:19:47;98348.40;;;5.06
68127;BMP180;54931;52.098;21.006;2023-03-07T14:25:15;98339.40;;;5.00
68127;BMP180;54931;52.098;21.006;2023-03-07T14:27:57;98340.60;;;5.00
68127;BMP180;54931;52.098;21.006;2023-03-07T14:30:29;98338.40;;;5.00
68127;BMP180;54931;52.098;21.006;2023-03-07T14:32:59;98335.20;;;4.94
68127;BMP180;54931;52.098;21.006;2023-03-07T14:35:38;98334.40;;;4.92
68127;BMP180;54931;52.098;21.006;2023-03-07T14:38:19;98330.40;;;4.90
68127;BMP180;54931;52.098;21.006;2023-03-07T14:41:19;98330.40;;;4.90
68127;BMP180;54931;52.098;21.006;2023-03-07T14:44:35;98330.00;;;4.92
68127;BMP180;54931;52.098;21.006;2023-03-07T14:47:23;98326.60;;;4.90
68127;BMP180;54931;52.098;21.006;2023-03-07T14:50:18;98323.80;;;4.90
68127;BMP180;54931;52.098;21.006;2023-03-07T14:52:48;98319.00;;;4.90
68127;BMP180;54931;52.098;21.006;2023-03-07T14:55:24;98317.60;;;4.90
68127;BMP180;54931;52.098;21.006;2023-03-07T14:57:54;98315.60;;;4.90
68127;BMP180;54931;52.098;21.006;2023-03-07T15:00:26;98311.00;;;4.90
68127;BMP180;54931;52.098;21.006;2023-03-07T15:03:05;98312.60;;;4.90
68127;BMP180;54931;52.098;21.006;2023-03-07T15:05:50;98307.80;;;4.80
68127;BMP180;54931;52.098;21.006;2023-03-07T15:08:24;98312.40;;;4.80
68127;BMP180;54931;52.098;21.006;2023-03-07T15:14:11;98302.00;;;4.80
68127;BMP180;54931;52.098;21.006;2023-03-07T15:16:48;98301.60;;;4.80
68127;BMP180;54931;52.098;21.006;2023-03-07T15:19:25;98302.20;;;4.76
68127;BMP180;54931;52.098;21.006;2023-03-07T15:22:00;98300.40;;;4.70
68127;BMP180;54931;52.098;21.006;2023-03-07T15:24:36;98295.80;;;4.70
68127;BMP180;54931;52.098;21.006;2023-03-07T15:27:05;98294.40;;;4.70
68127;BMP180;54931;52.098;21.006;2023-03-07T15:29:46;98285.20;;;4.70
68127;BMP180;54931;52.098;21.006;2023-03-07T15:32:38;98287.80;;;4.70
68127;BMP180;54931;52.098;21.006;2023-03-07T15:37:51;98282.20;;;4.70
68127;BMP180;54931;52.098;21.006;2023-03-07T15:43:16;98280.60;;;4.60
68127;BMP180;54931;52.098;21.006;2023-03-07T15:46:00;98268.40;;;4.60
68127;BMP180;54931;52.098;21.006;2023-03-07T15:48:47;98271.60;;;4.60
68127;BMP180;54931;52.098;21.006;2023-03-07T15:51:22;98270.00;;;4.50
68127;BMP180;54931;52.098;21.006;2023-03-07T15:53:59;98271.20;;;4.50
68127;BMP180;54931;52.098;21.006;2023-03-07T15:56:33;98263.80;;;4.48
68127;BMP180;54931;52.098;21.006;2023-03-07T16:01:48;98265.00;;;4.40
68127;BMP180;54931;52.098;21.006;2023-03-07T16:04:37;98258.40;;;4.38
68127;BMP180;54931;52.098;21.006;2023-03-07T16:07:16;98254.40;;;4.30
68127;BMP180;54931;52.098;21.006;2023-03-07T16:09:45;98256.80;;;4.30
68127;BMP180;54931;52.098;21.006;2023-03-07T16:12:16;98252.00;;;4.24
68127;BMP180;54931;52.098;21.006;2023-03-07T16:14:51;98247.80;;;4.20
68127;BMP180;54931;52.098;21.006;2023-03-07T16:17:37;98244.60;;;4.20
68127;BMP180;54931;52.098;21.006;2023-03-07T16:20:15;98245.00;;;4.14
68127;BMP180;54931;52.098;21.006;2023-03-07T16:22:45;98243.00;;;4.10
68127;BMP180;54931;52.098;21.006;2023-03-07T16:25:16;98243.40;;;4.10
68127;BMP180;54931;52.098;21.006;2023-03-07T16:27:49;98234.80;;;4.00
68127;BMP180;54931;52.098;21.006;2023-03-07T16:30:26;98238.20;;;4.00